Time;durP1;ratioP1;P1;durP2;ratioP2;P2;SDS_P1;SDS_P2;PMS_P1;PMS_P2;Temp;Humidity;BMP_temperature;BMP_pressure;BME280_temperature;BME280_humidity;BME280_pressure;Samples;Min_cycle;Max_cycle;Signal;HPM_P1;HPM_P2
2022/01/16 00:04:16;;;;;;;19.90;11.47;;;7.50;57.60;;;;;;5046041;28;20434;-50
2022/01/16 00:06:45;;;;;;;17.97;11.97;;;7.50;57.50;;;;;;5039844;28;20789;-50
2022/01/16 00:09:11;;;;;;;19.70;12.10;;;7.50;57.40;;;;;;5052311;28;20435;-50
2022/01/16 00:11:37;;;;;;;19.00;11.73;;;7.60;57.50;;;;;;5052141;28;20473;-53
2022/01/16 00:14:04;;;;;;;19.40;12.33;;;7.50;57.40;;;;;;5052075;28;20919;-52
2022/01/16 00:16:30;;;;;;;22.27;13.50;;;7.40;57.40;;;;;;5051670;28;20201;-49
2022/01/16 00:18:57;;;;;;;20.33;13.80;;;7.30;58.00;;;;;;5051960;28;20815;-54
2022/01/16 00:21:26;;;;;;;24.93;14.90;;;7.30;58.10;;;;;;5050699;28;20432;-50
2022/01/16 00:23:52;;;;;;;18.70;12.50;;;7.40;58.10;;;;;;5047853;28;20486;-49
2022/01/16 00:26:20;;;;;;;24.20;13.57;;;7.40;57.90;;;;;;5051497;28;20458;-51
2022/01/16 00:28:45;;;;;;;22.50;13.67;;;7.50;57.80;;;;;;5040420;28;20565;-51
2022/01/16 00:31:11;;;;;;;20.07;13.03;;;7.50;57.70;;;;;;5051999;28;20514;-52
2022/01/16 00:33:42;;;;;;;20.93;13.23;;;7.50;57.90;;;;;;5045379;28;20950;-51
2022/01/16 00:36:08;;;;;;;23.27;14.23;;;7.50;57.80;;;;;;5051371;28;20197;-50
2022/01/16 00:38:34;;;;;;;21.33;12.40;;;7.60;57.70;;;;;;5050367;28;20445;-51
2022/01/16 00:41:01;;;;;;;19.90;12.73;;;7.60;57.60;;;;;;5051139;28;20837;-51
2022/01/16 00:43:26;;;;;;;22.50;14.17;;;7.60;57.60;;;;;;5051234;28;20847;-50
2022/01/16 00:45:52;;;;;;;20.83;13.00;;;7.70;57.40;;;;;;5051266;28;20801;-50
2022/01/16 00:48:17;;;;;;;20.50;13.00;;;7.70;57.40;;;;;;5049989;28;20196;-51
2022/01/16 00:50:43;;;;;;;20.73;12.23;;;7.60;57.30;;;;;;5051945;28;20197;-53
2022/01/16 00:53:09;;;;;;;18.50;11.97;;;7.70;57.10;;;;;;5050895;28;20564;-53
2022/01/16 00:55:36;;;;;;;24.70;13.67;;;7.70;57.00;;;;;;5049431;28;20197;-53
2022/01/16 00:58:02;;;;;;;24.40;13.43;;;7.70;57.00;;;;;;5047713;28;20192;-54
2022/01/16 01:00:31;;;;;;;22.03;13.80;;;7.60;57.20;;;;;;5049962;28;20438;-53
2022/01/16 01:02:56;;;;;;;23.90;13.10;;;7.50;57.20;;;;;;5050989;28;20411;-53
2022/01/16 01:05:22;;;;;;;23.03;14.23;;;7.50;57.30;;;;;;5044713;28;20522;-54
2022/01/16 01:07:48;;;;;;;22.53;13.37;;;7.50;57.50;;;;;;5050575;28;20247;-53
2022/01/16 01:10:13;;;;;;;24.67;13.47;;;7.50;57.30;;;;;;5051622;28;20199;-54
2022/01/16 01:12:57;;;;;;;23.80;14.23;;;7.50;57.50;;;;;;5048296;28;20180;-53
2022/01/16 01:15:26;;;;;;;24.93;14.50;;;7.50;57.30;;;;;;5043272;28;20184;-52
2022/01/16 01:17:53;;;;;;;24.90;13.37;;;7.50;57.40;;;;;;5050657;28;20427;-54
2022/01/16 01:20:21;;;;;;;25.80;14.23;;;7.50;57.40;;;;;;5051152;28;20474;-53
2022/01/16 01:22:50;;;;;;;22.97;13.00;;;7.60;57.20;;;;;;5050490;28;20845;-52
2022/01/16 01:25:16;;;;;;;23.00;13.40;;;7.50;57.20;;;;;;5050379;28;20424;-54
2022/01/16 01:27:44;;;;;;;26.53;14.23;;;7.50;57.10;;;;;;5049719;28;20423;-52
2022/01/16 01:30:16;;;;;;;24.57;13.20;;;7.50;57.10;;;;;;5050918;28;20431;-54
2022/01/16 01:32:44;;;;;;;27.07;14.40;;;7.50;57.10;;;;;;5057275;28;20442;-52
2022/01/16 01:35:11;;;;;;;25.90;13.90;;;7.50;57.20;;;;;;5063689;28;20970;-51
2022/01/16 01:37:37;;;;;;;25.33;14.40;;;7.50;57.30;;;;;;5047026;28;21308;-53
2022/01/16 01:40:07;;;;;;;23.17;14.20;;;7.50;57.40;;;;;;5039802;28;20431;-52
2022/01/16 01:42:41;;;;;;;22.50;14.97;;;7.50;57.50;;;;;;5050469;28;20236;-53
2022/01/16 01:53:20;;;;;;;23.87;13.57;;;7.40;57.30;;;;;;5041117;28;20489;-53
2022/01/16 01:55:46;;;;;;;26.23;14.47;;;7.40;57.30;;;;;;5042567;28;20423;-50
2022/01/16 01:58:14;;;;;;;23.17;13.80;;;7.40;58.00;;;;;;5050303;28;20742;-53
2022/01/16 02:00:41;;;;;;;24.27;13.40;;;7.40;57.40;;;;;;5050384;28;20458;-52
2022/01/16 02:03:24;;;;;;;22.50;13.30;;;7.40;57.30;;;;;;5049558;28;20478;-52
2022/01/16 02:05:50;;;;;;;26.57;14.10;;;7.40;57.40;;;;;;5044531;28;20544;-54
2022/01/16 02:08:16;;;;;;;28.20;15.27;;;7.40;57.30;;;;;;5050434;28;20484;-50
2022/01/16 02:10:42;;;;;;;31.20;14.47;;;7.40;57.10;;;;;;5042282;28;20189;-53
2022/01/16 02:13:12;;;;;;;27.90;15.70;;;7.40;57.20;;;;;;5049364;28;20433;-53
2022/01/16 02:34:36;;;;;;;27.23;14.93;;;7.20;57.20;;;;;;5053830;28;20905;-53
2022/01/16 02:37:07;;;;;;;28.50;15.27;;;7.20;57.40;;;;;;5048745;28;20442;-54
2022/01/16 02:39:38;;;;;;;26.37;15.07;;;7.10;57.80;;;;;;5052657;28;20509;-53
2022/01/16 02:42:06;;;;;;;22.27;13.37;;;7.00;58.00;;;;;;5053626;28;20433;-51
2022/01/16 02:44:43;;;;;;;25.77;14.40;;;7.00;58.10;;;;;;5053669;28;20430;-53
2022/01/16 02:47:13;;;;;;;25.83;14.87;;;7.10;58.00;;;;;;5051818;28;20433;-52
2022/01/16 02:49:44;;;;;;;24.27;13.53;;;7.00;57.40;;;;;;5054025;28;20414;-53
2022/01/16 02:52:12;;;;;;;22.83;13.43;;;6.90;57.50;;;;;;5052750;28;20448;-53
2022/01/16 02:54:41;;;;;;;23.90;14.40;;;6.90;57.50;;;;;;5056647;28;20435;-53
2022/01/16 02:57:09;;;;;;;24.73;15.13;;;7.00;57.80;;;;;;5048384;28;20523;-53
2022/01/16 02:59:36;;;;;;;24.43;14.30;;;7.00;57.90;;;;;;5042117;28;20477;-50
2022/01/16 03:02:03;;;;;;;28.50;16.10;;;6.80;57.80;;;;;;5053177;28;20423;-53
2022/01/16 03:04:29;;;;;;;31.50;15.60;;;6.90;58.00;;;;;;5045195;28;20423;-50
2022/01/16 03:06:57;;;;;;;25.13;15.23;;;6.90;58.00;;;;;;5053066;28;20434;-52
2022/01/16 03:09:23;;;;;;;30.70;16.73;;;6.90;58.10;;;;;;5053445;28;20426;-53
2022/01/16 03:11:50;;;;;;;27.60;16.47;;;6.90;58.10;;;;;;5048795;28;20793;-53
2022/01/16 03:14:21;;;;;;;27.20;16.93;;;7.00;58.10;;;;;;5049300;28;20577;-50
2022/01/16 03:16:50;;;;;;;27.37;15.63;;;6.90;58.10;;;;;;5044975;28;20435;-51
2022/01/16 03:22:05;;;;;;;30.80;17.23;;;6.60;58.70;;;;;;5052959;28;20430;-53
2022/01/16 03:24:40;;;;;;;30.03;16.27;;;6.70;58.60;;;;;;5052921;28;20431;-54
2022/01/16 03:27:12;;;;;;;31.00;17.13;;;6.60;58.90;;;;;;5052662;28;20537;-50
2022/01/16 03:29:39;;;;;;;27.63;16.93;;;6.50;58.80;;;;;;5042510;28;20802;-52
2022/01/16 03:32:07;;;;;;;30.00;16.40;;;6.30;59.60;;;;;;5050259;28;20465;-49
2022/01/16 03:34:33;;;;;;;27.90;16.20;;;6.30;59.90;;;;;;5052986;28;20431;-52
2022/01/16 03:36:59;;;;;;;29.80;15.73;;;6.40;59.80;;;;;;5052429;28;20940;-50
2022/01/16 03:39:24;;;;;;;28.37;15.60;;;6.20;59.60;;;;;;5051827;28;20192;-53
2022/01/16 03:41:50;;;;;;;26.47;15.60;;;6.10;60.10;;;;;;5050854;28;20585;-53
2022/01/16 03:44:16;;;;;;;30.53;16.97;;;6.10;60.50;;;;;;5053019;28;20573;-50
2022/01/16 03:46:43;;;;;;;30.77;17.17;;;6.30;60.10;;;;;;5045245;28;20600;-50
2022/01/16 03:49:14;;;;;;;30.87;17.43;;;6.30;59.90;;;;;;5052670;28;20508;-52
2022/01/16 03:51:42;;;;;;;30.33;16.77;;;6.40;59.80;;;;;;5052279;28;20522;-50
2022/01/16 03:54:09;;;;;;;32.10;15.37;;;6.40;60.40;;;;;;5052505;28;21092;-53
2022/01/16 03:56:36;;;;;;;31.90;17.73;;;6.40;59.50;;;;;;5052128;28;20959;-52
2022/01/16 03:59:01;;;;;;;31.30;16.50;;;6.20;59.50;;;;;;5052668;28;20428;-50
2022/01/16 04:01:27;;;;;;;28.17;15.30;;;6.00;60.10;;;;;;5052089;28;20770;-49
2022/01/16 04:03:54;;;;;;;29.47;16.97;;;6.10;60.80;;;;;;5046111;28;20316;-53
2022/01/16 04:06:21;;;;;;;32.63;17.10;;;6.20;60.50;;;;;;5050885;28;20569;-50
2022/01/16 04:08:48;;;;;;;28.57;17.07;;;6.10;60.80;;;;;;5051183;28;20435;-49
2022/01/16 04:11:14;;;;;;;30.50;17.87;;;6.30;60.70;;;;;;5051992;28;20435;-51
2022/01/16 04:13:50;;;;;;;33.50;18.40;;;6.40;60.30;;;;;;5052094;28;20826;-49
2022/01/16 04:16:17;;;;;;;36.20;17.90;;;6.50;60.00;;;;;;5052037;28;20430;-50
2022/01/16 04:18:43;;;;;;;32.23;16.80;;;6.60;59.60;;;;;;5052503;28;20426;-49
2022/01/16 04:21:08;;;;;;;32.27;18.57;;;6.70;59.40;;;;;;5041724;28;20551;-53
2022/01/16 04:23:34;;;;;;;33.60;18.90;;;6.70;59.20;;;;;;5051763;28;20311;-52
2022/01/16 04:26:00;;;;;;;30.97;18.20;;;6.60;59.00;;;;;;5051768;28;20207;-50
2022/01/16 04:28:25;;;;;;;34.53;17.90;;;6.50;59.30;;;;;;5052078;28;20265;-50
2022/01/16 04:30:52;;;;;;;36.43;17.50;;;6.40;59.20;;;;;;5051687;28;20188;-51
2022/01/16 04:33:18;;;;;;;32.57;17.40;;;6.20;59.80;;;;;;5051535;28;20268;-51
2022/01/16 04:35:44;;;;;;;31.33;17.97;;;5.90;60.60;;;;;;5050516;28;20931;-51
2022/01/16 04:38:10;;;;;;;37.17;20.47;;;6.00;61.00;;;;;;5050014;28;20472;-51
2022/01/16 04:43:47;;;;;;;28.43;16.40;;;5.80;61.60;;;;;;5052192;28;21255;-52
2022/01/16 04:46:11;;;;;;;30.77;18.10;;;5.50;62.50;;;;;;5051117;28;20446;-52
2022/01/16 04:48:36;;;;;;;30.57;17.87;;;5.50;63.20;;;;;;5051504;28;20772;-51
2022/01/16 04:51:02;;;;;;;29.87;17.63;;;5.70;62.90;;;;;;5050822;28;20199;-53
2022/01/16 04:53:27;;;;;;;29.10;16.80;;;5.80;62.50;;;;;;5036987;28;20621;-50
2022/01/16 04:55:53;;;;;;;35.67;17.57;;;6.00;62.00;;;;;;5044279;28;20712;-50
2022/01/16 04:58:21;;;;;;;35.47;17.70;;;6.00;60.90;;;;;;5057712;28;20197;-53
2022/01/16 05:00:46;;;;;;;32.53;17.97;;;6.00;61.20;;;;;;5050350;28;20481;-49
2022/01/16 05:03:12;;;;;;;27.07;17.03;;;5.90;60.90;;;;;;5055174;28;20478;-50
2022/01/16 05:05:38;;;;;;;26.20;15.73;;;5.90;61.40;;;;;;5044380;28;20290;-53
2022/01/16 05:08:04;;;;;;;30.43;18.17;;;5.80;61.10;;;;;;5043004;28;20489;-53
2022/01/16 05:10:29;;;;;;;29.73;16.57;;;6.00;61.00;;;;;;5051382;28;20192;-50
2022/01/16 05:13:04;;;;;;;29.70;16.77;;;6.00;60.30;;;;;;5055416;28;20192;-50
2022/01/16 05:18:14;;;;;;;27.07;15.63;;;6.20;59.60;;;;;;5042016;28;20461;-50
2022/01/16 05:20:40;;;;;;;31.00;16.60;;;6.20;59.50;;;;;;5042903;28;20474;-50
2022/01/16 05:23:05;;;;;;;29.27;16.20;;;6.30;59.40;;;;;;5041715;28;20260;-54
2022/01/16 05:25:31;;;;;;;28.73;15.53;;;6.40;59.10;;;;;;5050841;28;20185;-53
2022/01/16 05:27:56;;;;;;;25.43;15.17;;;6.40;58.90;;;;;;5043590;28;20193;-50
2022/01/16 05:30:22;;;;;;;27.60;17.17;;;6.50;58.80;;;;;;5047825;28;20211;-49
2022/01/16 05:32:48;;;;;;;25.13;15.47;;;6.60;58.70;;;;;;5050280;28;20263;-50
2022/01/16 05:35:13;;;;;;;30.17;17.40;;;6.60;58.60;;;;;;5051098;28;20192;-51
2022/01/16 05:37:39;;;;;;;26.07;16.37;;;6.70;58.30;;;;;;5045700;28;20272;-54
2022/01/16 05:40:06;;;;;;;28.00;16.87;;;6.70;58.10;;;;;;5047573;28;20203;-51
2022/01/16 05:42:32;;;;;;;25.33;15.00;;;6.60;57.90;;;;;;5050446;28;20220;-54
2022/01/16 05:44:58;;;;;;;28.10;16.13;;;6.60;58.20;;;;;;5048754;28;20455;-50
2022/01/16 05:47:24;;;;;;;29.20;16.27;;;6.70;58.10;;;;;;5040633;28;20869;-49
2022/01/16 05:49:49;;;;;;;27.83;16.17;;;6.70;57.90;;;;;;5050914;28;20428;-49
2022/01/16 05:52:15;;;;;;;27.97;15.40;;;6.70;57.90;;;;;;5050518;28;20604;-50
2022/01/16 05:54:41;;;;;;;23.43;15.17;;;6.60;57.90;;;;;;5048846;28;20283;-53
2022/01/16 05:57:07;;;;;;;21.63;14.20;;;6.50;58.00;;;;;;5050430;28;20220;-50
2022/01/16 05:59:33;;;;;;;27.00;14.93;;;6.50;57.60;;;;;;5050644;28;20203;-50
2022/01/16 06:01:59;;;;;;;21.40;13.53;;;6.60;57.50;;;;;;5045403;28;20424;-52
2022/01/16 06:04:24;;;;;;;25.40;15.43;;;6.60;57.50;;;;;;5044518;28;20250;-50
2022/01/16 06:06:50;;;;;;;22.53;14.40;;;6.60;57.30;;;;;;5054410;28;20199;-49
2022/01/16 06:09:15;;;;;;;24.00;14.30;;;6.60;57.30;;;;;;5054842;28;20686;-51
2022/01/16 06:11:41;;;;;;;19.20;12.97;;;6.60;57.20;;;;;;5054379;28;20188;-50
2022/01/16 06:14:07;;;;;;;25.80;14.40;;;6.70;57.20;;;;;;5054121;28;20930;-49
2022/01/16 06:16:35;;;;;;;25.27;14.30;;;6.70;57.20;;;;;;5054129;28;20714;-50
2022/01/16 06:19:00;;;;;;;22.70;13.60;;;6.70;56.80;;;;;;5050954;28;20227;-50
2022/01/16 06:21:26;;;;;;;20.20;13.93;;;6.70;56.70;;;;;;5051101;28;20541;-50
2022/01/16 06:23:52;;;;;;;21.87;14.13;;;6.70;56.70;;;;;;5047609;28;20248;-50
2022/01/16 06:26:17;;;;;;;22.73;15.47;;;6.70;56.70;;;;;;5054097;28;20568;-51
2022/01/16 06:28:43;;;;;;;24.17;14.63;;;6.70;56.70;;;;;;5054333;28;20718;-50
2022/01/16 06:31:08;;;;;;;24.67;14.03;;;6.70;56.70;;;;;;5054177;28;20219;-50
2022/01/16 06:33:34;;;;;;;24.17;15.40;;;6.80;56.80;;;;;;5053939;28;20711;-50
2022/01/16 06:36:01;;;;;;;23.20;15.67;;;6.70;56.80;;;;;;5053953;28;20188;-52
2022/01/16 06:38:27;;;;;;;20.03;13.63;;;6.70;56.70;;;;;;5041806;28;20379;-50
2022/01/16 06:40:53;;;;;;;22.40;14.63;;;6.80;57.00;;;;;;5053947;28;20856;-50
2022/01/16 06:43:18;;;;;;;23.77;15.23;;;6.70;56.90;;;;;;5046650;28;20220;-51
2022/01/16 06:45:44;;;;;;;23.20;15.73;;;6.60;57.00;;;;;;5054118;28;20203;-50
2022/01/16 06:48:10;;;;;;;20.60;14.27;;;6.70;56.90;;;;;;5052930;28;20196;-53
2022/01/16 06:50:35;;;;;;;21.20;14.90;;;6.70;56.80;;;;;;5053466;28;20192;-53
2022/01/16 06:53:01;;;;;;;21.40;15.30;;;6.60;56.80;;;;;;5052836;28;20193;-54
2022/01/16 06:55:27;;;;;;;22.23;16.30;;;6.70;57.00;;;;;;5053552;28;20192;-49
2022/01/16 06:57:52;;;;;;;22.87;15.57;;;6.70;56.80;;;;;;5053208;28;20644;-49
2022/01/16 07:00:18;;;;;;;23.67;15.20;;;6.70;56.60;;;;;;5053966;28;20193;-50
2022/01/16 07:02:43;;;;;;;28.33;17.00;;;6.70;56.50;;;;;;5053089;28;20232;-52
2022/01/16 07:05:10;;;;;;;21.47;14.80;;;6.70;56.40;;;;;;5047823;28;20259;-54
2022/01/16 07:07:35;;;;;;;24.13;14.40;;;6.80;56.40;;;;;;5053351;28;20200;-49
2022/01/16 07:10:02;;;;;;;21.33;14.07;;;6.60;56.00;;;;;;5047666;28;20446;-50
2022/01/16 07:12:27;;;;;;;23.83;15.40;;;6.00;56.80;;;;;;5048465;28;20229;-53
2022/01/16 07:14:53;;;;;;;23.77;15.00;;;5.80;58.10;;;;;;5052906;28;21013;-50
2022/01/16 07:17:18;;;;;;;22.47;15.30;;;5.40;58.10;;;;;;5052144;28;20282;-50
2022/01/16 07:19:44;;;;;;;22.33;14.07;;;5.20;59.20;;;;;;5053913;28;20704;-52
2022/01/16 07:22:09;;;;;;;22.73;15.83;;;5.40;59.70;;;;;;5052572;28;20199;-53
2022/01/16 07:24:35;;;;;;;21.93;13.37;;;5.40;59.10;;;;;;5052974;28;20645;-53
2022/01/16 07:27:01;;;;;;;28.43;16.40;;;5.40;59.10;;;;;;5049006;28;20240;-53
2022/01/16 07:29:28;;;;;;;19.83;13.40;;;5.60;58.70;;;;;;5053411;28;20250;-50
2022/01/16 07:31:53;;;;;;;25.60;15.87;;;5.90;58.20;;;;;;5052390;28;20271;-54
2022/01/16 07:34:19;;;;;;;25.67;15.13;;;5.80;57.50;;;;;;5052960;28;20502;-49
2022/01/16 07:36:44;;;;;;;25.23;14.80;;;5.90;57.70;;;;;;5050121;28;20215;-53
2022/01/16 07:39:10;;;;;;;21.10;13.50;;;6.00;57.20;;;;;;5042046;28;20204;-50
2022/01/16 07:41:36;;;;;;;23.23;14.53;;;6.00;57.20;;;;;;5051173;28;20223;-54
2022/01/16 07:44:02;;;;;;;21.80;14.47;;;6.00;56.80;;;;;;5042904;28;20483;-51
2022/01/16 07:46:27;;;;;;;22.77;14.30;;;6.00;56.50;;;;;;5048611;28;20201;-54
2022/01/16 07:48:53;;;;;;;19.90;13.50;;;6.10;56.60;;;;;;5044109;28;20238;-54
2022/01/16 07:51:19;;;;;;;19.40;13.30;;;6.00;56.80;;;;;;5052323;28;20750;-52
2022/01/16 07:53:45;;;;;;;19.93;13.37;;;6.00;56.40;;;;;;5052708;28;20477;-53
2022/01/16 07:56:11;;;;;;;19.70;13.43;;;6.00;56.30;;;;;;5052267;28;20224;-53
2022/01/16 07:58:36;;;;;;;22.23;13.90;;;5.80;56.30;;;;;;5052780;28;20456;-53
2022/01/16 08:01:03;;;;;;;21.73;14.53;;;5.20;57.50;;;;;;5048759;28;20451;-53
2022/01/16 08:03:28;;;;;;;21.57;14.17;;;5.20;58.60;;;;;;5050883;28;20224;-53
2022/01/16 08:05:54;;;;;;;21.30;14.77;;;5.40;58.70;;;;;;5048197;28;20428;-52
2022/01/16 08:08:20;;;;;;;20.67;14.60;;;5.50;57.90;;;;;;5052363;28;20609;-50
2022/01/16 08:10:45;;;;;;;20.83;14.37;;;5.30;57.90;;;;;;5050958;28;20211;-52
2022/01/16 08:13:11;;;;;;;21.87;13.80;;;4.90;58.20;;;;;;5050295;28;20223;-51
2022/01/16 08:15:36;;;;;;;23.60;14.20;;;5.10;59.20;;;;;;5052369;28;20192;-53
2022/01/16 08:18:02;;;;;;;23.40;15.70;;;5.40;58.80;;;;;;5045316;28;20886;-53
2022/01/16 08:20:28;;;;;;;22.23;15.13;;;5.70;58.20;;;;;;5047730;28;20242;-53
2022/01/16 08:22:54;;;;;;;23.67;15.00;;;5.90;57.80;;;;;;5051288;28;20232;-52
2022/01/16 08:25:20;;;;;;;19.37;14.60;;;6.00;57.60;;;;;;5051852;28;20228;-52
2022/01/16 08:27:46;;;;;;;22.70;15.93;;;6.10;57.40;;;;;;5051995;28;20514;-53
2022/01/16 08:30:12;;;;;;;23.37;15.77;;;6.20;57.00;;;;;;5051896;28;20530;-53
2022/01/16 08:32:39;;;;;;;22.40;15.40;;;6.20;56.90;;;;;;5051273;28;20560;-54
2022/01/16 08:35:06;;;;;;;24.27;16.07;;;6.30;56.70;;;;;;5047059;28;20428;-53
2022/01/16 08:37:32;;;;;;;20.97;15.30;;;6.30;56.60;;;;;;5049380;28;20526;-53
2022/01/16 08:39:57;;;;;;;22.07;15.57;;;6.30;56.40;;;;;;5051983;28;20970;-54
2022/01/16 08:42:23;;;;;;;20.77;14.70;;;6.40;56.40;;;;;;5050857;28;20224;-52
2022/01/16 08:44:51;;;;;;;22.83;15.17;;;6.40;56.50;;;;;;5048002;28;20193;-54
2022/01/16 08:47:17;;;;;;;20.60;14.37;;;6.50;56.50;;;;;;5033128;28;20269;-52
2022/01/16 08:49:43;;;;;;;32.50;20.27;;;6.60;56.40;;;;;;5047925;28;20728;-53
2022/01/16 08:52:09;;;;;;;24.50;16.90;;;6.50;56.30;;;;;;5044219;28;20463;-53
2022/01/16 08:54:35;;;;;;;24.00;16.90;;;6.50;56.40;;;;;;5047534;28;20184;-53
2022/01/16 08:57:02;;;;;;;31.50;20.87;;;6.50;56.30;;;;;;5051168;28;20895;-53
2022/01/16 08:59:28;;;;;;;26.63;17.20;;;6.60;56.30;;;;;;5051508;28;20196;-53
2022/01/16 09:01:54;;;;;;;24.53;15.77;;;6.70;56.20;;;;;;5050750;28;20428;-51
2022/01/16 09:04:20;;;;;;;19.30;13.90;;;6.70;55.80;;;;;;5043439;28;20827;-53
2022/01/16 09:06:45;;;;;;;21.63;15.90;;;6.70;55.80;;;;;;5051263;28;20192;-53
2022/01/16 09:09:11;;;;;;;23.73;15.93;;;6.70;55.90;;;;;;5046459;28;20557;-53
2022/01/16 09:11:37;;;;;;;26.23;17.23;;;6.70;56.00;;;;;;5050328;28;20195;-54
2022/01/16 09:14:03;;;;;;;25.40;16.37;;;6.70;56.00;;;;;;5050913;28;20610;-53
2022/01/16 09:16:30;;;;;;;27.00;17.03;;;6.70;55.80;;;;;;5050894;28;20427;-54
2022/01/16 09:18:56;;;;;;;21.90;15.67;;;6.70;55.90;;;;;;5050805;28;20813;-53
2022/01/16 09:21:22;;;;;;;21.47;16.23;;;6.70;55.80;;;;;;5050878;28;20473;-54
2022/01/16 09:23:50;;;;;;;23.90;16.40;;;6.70;56.00;;;;;;5050946;28;20966;-52
2022/01/16 09:26:16;;;;;;;21.00;14.67;;;6.70;55.80;;;;;;5043237;28;20201;-53
2022/01/16 09:28:43;;;;;;;21.53;14.70;;;6.70;55.80;;;;;;5047249;28;20903;-52
2022/01/16 09:31:10;;;;;;;21.67;15.47;;;6.80;55.70;;;;;;5048878;28;20784;-52
2022/01/16 09:33:35;;;;;;;22.40;15.23;;;6.80;55.50;;;;;;5050738;28;20459;-53
2022/01/16 09:36:03;;;;;;;22.40;15.33;;;6.70;55.40;;;;;;5050058;28;20466;-50
2022/01/16 09:38:29;;;;;;;26.67;16.90;;;6.70;55.60;;;;;;5050176;28;20435;-53
2022/01/16 09:40:55;;;;;;;25.73;15.60;;;6.70;55.60;;;;;;5045331;28;20477;-53
2022/01/16 09:43:21;;;;;;;21.87;15.93;;;6.80;55.90;;;;;;5044011;28;20593;-53
2022/01/16 09:45:48;;;;;;;21.50;14.37;;;6.70;55.50;;;;;;5049031;28;20458;-53
2022/01/16 09:48:16;;;;;;;26.10;17.30;;;6.80;55.70;;;;;;5052104;28;20458;-50
2022/01/16 09:50:42;;;;;;;24.70;15.93;;;6.70;55.70;;;;;;5053777;28;20501;-53
2022/01/16 09:53:07;;;;;;;22.83;15.50;;;6.80;55.70;;;;;;5040983;28;20423;-50
2022/01/16 09:55:33;;;;;;;22.30;16.77;;;6.80;55.50;;;;;;5035692;28;20193;-52
2022/01/16 09:58:00;;;;;;;22.13;15.57;;;6.90;55.50;;;;;;5036249;28;20185;-54
2022/01/16 10:00:27;;;;;;;24.23;15.80;;;6.90;55.40;;;;;;5043562;28;20542;-55
2022/01/16 10:02:53;;;;;;;21.17;16.53;;;6.90;55.60;;;;;;5044868;28;20482;-53
2022/01/16 10:05:25;;;;;;;20.30;15.77;;;7.00;55.60;;;;;;5047666;28;20477;-52
2022/01/16 10:07:51;;;;;;;23.10;17.20;;;7.00;55.40;;;;;;5038374;28;20447;-52
2022/01/16 10:10:17;;;;;;;19.50;15.83;;;7.00;55.10;;;;;;5045312;28;20445;-51
2022/01/16 10:12:49;;;;;;;23.57;16.50;;;7.00;55.10;;;;;;5066750;28;20945;-53
2022/01/16 10:15:26;;;;;;;25.87;15.30;;;7.10;55.20;;;;;;5038580;28;20443;-51
2022/01/16 10:17:55;;;;;;;24.30;16.67;;;7.10;55.30;;;;;;5046994;28;20522;-51
2022/01/16 10:20:21;;;;;;;22.80;16.20;;;7.10;55.20;;;;;;5043669;28;20848;-55
2022/01/16 10:22:50;;;;;;;23.13;16.90;;;7.00;55.10;;;;;;5038545;28;20843;-54
2022/01/16 10:25:33;;;;;;;23.10;16.47;;;7.00;55.10;;;;;;5034727;28;20459;-51
2022/01/16 10:28:03;;;;;;;24.03;16.23;;;6.90;55.20;;;;;;5042899;28;20435;-50
2022/01/16 10:30:44;;;;;;;24.37;17.47;;;6.90;55.40;;;;;;5042054;28;20431;-53
2022/01/16 10:33:15;;;;;;;23.23;17.10;;;7.00;55.70;;;;;;5039751;28;20439;-52
2022/01/16 10:35:43;;;;;;;23.23;16.57;;;7.10;55.50;;;;;;5038342;28;20434;-53
2022/01/16 10:38:11;;;;;;;25.03;17.80;;;7.10;55.40;;;;;;5038948;28;20466;-51
2022/01/16 10:40:38;;;;;;;24.40;16.97;;;7.20;55.40;;;;;;5046169;28;20442;-50
2022/01/16 10:43:13;;;;;;;24.37;17.30;;;7.00;55.70;;;;;;5046978;28;20509;-52
2022/01/16 10:45:40;;;;;;;26.57;18.03;;;7.10;55.60;;;;;;5032417;28;20783;-54
2022/01/16 10:48:07;;;;;;;24.67;19.30;;;7.20;55.40;;;;;;5045937;28;20831;-54
2022/01/16 10:50:44;;;;;;;24.80;18.10;;;7.30;55.40;;;;;;5041000;28;20546;-53
2022/01/16 10:53:17;;;;;;;27.70;19.40;;;7.40;55.40;;;;;;5033854;28;22532;-54
2022/01/16 10:55:53;;;;;;;26.60;17.10;;;7.50;55.40;;;;;;5044626;28;20426;-54
2022/01/16 10:58:29;;;;;;;26.97;17.83;;;7.50;55.40;;;;;;5043503;28;20423;-54
2022/01/16 11:01:03;;;;;;;28.33;17.70;;;7.60;55.40;;;;;;5042626;28;20430;-50
2022/01/16 11:03:38;;;;;;;25.83;17.67;;;7.70;55.40;;;;;;5049283;28;20536;-50
2022/01/16 11:06:04;;;;;;;26.00;17.67;;;7.70;55.40;;;;;;5043456;28;21063;-53
2022/01/16 11:08:30;;;;;;;24.40;17.43;;;7.80;55.40;;;;;;5041143;28;20518;-53
2022/01/16 11:10:57;;;;;;;28.20;18.37;;;7.80;55.20;;;;;;5047518;28;21456;-51
2022/01/16 11:13:29;;;;;;;25.90;18.57;;;7.90;55.10;;;;;;5043490;28;20776;-54
2022/01/16 11:15:59;;;;;;;31.97;19.93;;;8.00;55.00;;;;;;5044247;28;20439;-52
2022/01/16 11:18:26;;;;;;;28.50;19.13;;;8.00;54.90;;;;;;5048756;28;20447;-52
2022/01/16 11:23:35;;;;;;;28.63;19.30;;;8.00;54.90;;;;;;5047876;28;20522;-52
2022/01/16 11:26:04;;;;;;;27.67;18.53;;;7.80;55.20;;;;;;5039023;28;20430;-54
2022/01/16 11:28:30;;;;;;;28.40;19.93;;;7.90;55.60;;;;;;5049058;28;20474;-53
2022/01/16 11:31:04;;;;;;;27.60;19.80;;;8.00;55.40;;;;;;5036932;28;20458;-52
2022/01/16 11:33:32;;;;;;;26.00;19.90;;;8.00;55.30;;;;;;5043960;28;20193;-53
2022/01/16 11:36:04;;;;;;;30.57;20.50;;;8.00;55.40;;;;;;5043070;28;20470;-50
2022/01/16 11:38:44;;;;;;;24.40;18.13;;;8.10;55.30;;;;;;5045951;28;20439;-51
2022/01/16 11:41:13;;;;;;;27.87;19.43;;;8.20;55.30;;;;;;5039138;28;20548;-54
2022/01/16 11:43:40;;;;;;;29.37;18.97;;;8.20;55.70;;;;;;5046263;28;20570;-52
2022/01/16 11:46:07;;;;;;;30.90;21.03;;;8.10;55.90;;;;;;5045245;28;20443;-50
2022/01/16 11:48:42;;;;;;;30.37;19.83;;;8.10;56.00;;;;;;5043830;28;20431;-53
2022/01/16 11:51:33;;;;;;;27.70;19.43;;;8.10;56.50;;;;;;5042787;28;20436;-51
2022/01/16 11:54:02;;;;;;;30.00;18.60;;;7.90;56.80;;;;;;5052567;28;20460;-54
2022/01/16 11:56:56;;;;;;;31.07;19.90;;;7.80;57.00;;;;;;5047122;28;20461;-53
2022/01/16 11:59:41;;;;;;;29.93;19.87;;;7.80;57.50;;;;;;5039105;28;21017;-52
2022/01/16 12:02:10;;;;;;;35.60;20.40;;;7.60;58.00;;;;;;5050047;28;20883;-53
2022/01/16 12:04:38;;;;;;;29.10;19.10;;;7.50;58.50;;;;;;5037202;28;20512;-50
2022/01/16 12:07:13;;;;;;;35.97;20.10;;;7.20;59.10;;;;;;5036527;28;20431;-52
2022/01/16 12:09:48;;;;;;;30.80;20.17;;;7.10;59.90;;;;;;5049686;28;20942;-51
2022/01/16 12:12:16;;;;;;;32.30;19.63;;;7.10;60.20;;;;;;5040412;28;20570;-51
2022/01/16 12:15:07;;;;;;;28.70;19.57;;;7.10;60.10;;;;;;5038825;28;20932;-52
2022/01/16 12:17:40;;;;;;;27.93;17.43;;;7.00;59.80;;;;;;5048922;28;20439;-52
2022/01/16 12:20:12;;;;;;;25.23;17.40;;;6.70;60.70;;;;;;5037088;28;20515;-50
2022/01/16 12:23:00;;;;;;;32.37;18.97;;;6.50;61.80;;;;;;5034771;28;21189;-52
2022/01/16 12:25:28;;;;;;;28.00;16.33;;;6.60;62.20;;;;;;5035914;28;20796;-51
2022/01/16 12:27:58;;;;;;;27.40;17.30;;;6.70;61.90;;;;;;5043042;28;20451;-53
2022/01/16 12:30:28;;;;;;;26.13;15.83;;;6.90;61.30;;;;;;5044705;28;20470;-54
2022/01/16 12:33:00;;;;;;;25.17;15.80;;;6.80;60.50;;;;;;5037063;28;20455;-50
2022/01/16 12:35:41;;;;;;;24.70;15.60;;;6.80;60.80;;;;;;5039747;28;20450;-51
2022/01/16 12:38:14;;;;;;;27.10;16.00;;;6.80;60.20;;;;;;5039922;28;20451;-50
2022/01/16 12:40:43;;;;;;;26.47;16.60;;;6.90;60.00;;;;;;5046672;28;20492;-53
2022/01/16 12:43:12;;;;;;;23.10;15.27;;;6.80;59.90;;;;;;5043315;28;20482;-53
2022/01/16 12:45:40;;;;;;;26.60;16.00;;;6.90;60.00;;;;;;5045601;28;20447;-53
2022/01/16 12:48:07;;;;;;;21.53;14.80;;;7.00;59.50;;;;;;5047171;28;21083;-50
2022/01/16 12:50:33;;;;;;;22.17;15.37;;;7.10;59.40;;;;;;5045405;28;20435;-54
2022/01/16 12:52:58;;;;;;;22.80;13.87;;;7.10;59.20;;;;;;5039754;28;20435;-51
2022/01/16 12:55:28;;;;;;;22.13;14.23;;;7.30;59.00;;;;;;5048748;28;20442;-50
2022/01/16 12:57:54;;;;;;;21.17;12.83;;;7.30;58.90;;;;;;5040027;28;20211;-54
2022/01/16 13:00:20;;;;;;;21.10;13.67;;;7.40;58.70;;;;;;5046158;28;20443;-54
2022/01/16 13:02:53;;;;;;;23.67;15.03;;;7.60;58.40;;;;;;5041911;28;20273;-50
2022/01/16 13:05:21;;;;;;;21.57;12.77;;;7.60;58.10;;;;;;5040869;28;20773;-54
2022/01/16 13:07:47;;;;;;;24.07;13.60;;;7.50;58.20;;;;;;5039432;28;20955;-55
2022/01/16 13:10:12;;;;;;;21.37;13.87;;;7.60;58.30;;;;;;5039136;28;20786;-52
2022/01/16 13:12:38;;;;;;;22.70;14.20;;;7.60;58.00;;;;;;5041230;28;20197;-54
2022/01/16 13:15:04;;;;;;;19.40;13.23;;;7.90;57.90;;;;;;5042302;28;20199;-54
2022/01/16 13:17:34;;;;;;;18.60;13.50;;;8.00;57.40;;;;;;5040235;28;20224;-53
2022/01/16 13:20:02;;;;;;;20.43;12.97;;;8.10;57.10;;;;;;5041844;28;20867;-50